createdAt,value
2023-06-07T00:00:40.874Z,90.30
2023-06-07T00:03:15.955Z,90.30
2023-06-07T00:05:50.425Z,90.20
2023-06-07T00:08:25.098Z,91.00
2023-06-07T00:10:59.600Z,89.80
2023-06-07T00:13:34.957Z,90.70
2023-06-07T00:16:09.201Z,90.40
2023-06-07T00:18:43.300Z,90.50
2023-06-07T00:21:20.947Z,90.60
2023-06-07T00:23:55.682Z,90.40
2023-06-07T00:26:29.815Z,90.60
2023-06-07T00:29:05.346Z,90.40
2023-06-07T00:31:39.547Z,90.70
2023-06-07T00:34:13.705Z,90.60
2023-06-07T00:36:48.517Z,90.60
2023-06-07T00:39:23.613Z,90.80
2023-06-07T00:41:57.963Z,90.90
2023-06-07T00:44:33.459Z,90.90
2023-06-07T00:47:07.798Z,90.70
2023-06-07T00:49:41.978Z,90.60
2023-06-07T00:52:16.480Z,90.90
2023-06-07T00:54:50.851Z,91.20
2023-06-07T00:57:24.994Z,90.90
2023-06-07T01:00:00.746Z,90.90
2023-06-07T01:02:35.444Z,90.70
2023-06-07T01:05:10.537Z,90.80
2023-06-07T01:07:47.292Z,90.90
2023-06-07T01:10:21.700Z,91.10
2023-06-07T01:12:58.100Z,91.30
2023-06-07T01:15:34.275Z,91.20
2023-06-07T01:18:10.879Z,91.40
2023-06-07T01:20:53.491Z,91.30
2023-06-07T01:23:32.861Z,91.30
2023-06-07T01:26:07.697Z,91.40
2023-06-07T01:28:43.276Z,91.50
2023-06-07T01:31:18.190Z,91.40
2023-06-07T01:33:52.884Z,91.30
2023-06-07T01:36:30.090Z,91.20
2023-06-07T01:39:06.609Z,90.90
2023-06-07T01:41:41.825Z,90.90
2023-06-07T01:44:16.687Z,91.30
2023-06-07T01:46:52.008Z,91.50
2023-06-07T01:49:26.187Z,91.70
2023-06-07T01:52:00.840Z,91.60
2023-06-07T01:54:36.482Z,91.70
2023-06-07T01:57:23.622Z,91.60
2023-06-07T02:00:13.061Z,91.30
2023-06-07T02:02:52.560Z,91.60
2023-06-07T02:05:31.581Z,91.90
2023-06-07T02:08:21.737Z,91.80
2023-06-07T02:10:57.763Z,91.60
2023-06-07T02:13:36.477Z,91.70
2023-06-07T02:16:12.031Z,92.30
2023-06-07T02:18:46.114Z,92.40
2023-06-07T02:21:20.184Z,92.20
2023-06-07T02:23:54.413Z,92.00
2023-06-07T02:26:30.673Z,92.10
2023-06-07T02:29:04.793Z,92.30
2023-06-07T02:31:39.020Z,92.50
2023-06-07T02:34:13.132Z,92.30
2023-06-07T02:36:47.396Z,92.10
2023-06-07T02:39:21.649Z,92.40
2023-06-07T02:41:59.517Z,92.30
2023-06-07T02:44:33.642Z,92.60
2023-06-07T02:47:08.352Z,92.60
2023-06-07T02:49:42.591Z,92.70
2023-06-07T02:52:16.755Z,92.60
2023-06-07T02:54:51.093Z,92.60
2023-06-07T02:57:26.538Z,92.70
2023-06-07T03:00:01.380Z,92.50
2023-06-07T03:02:37.949Z,92.40
2023-06-07T03:05:13.909Z,92.30
2023-06-07T03:07:48.171Z,92.30
2023-06-07T03:10:22.385Z,92.70
2023-06-07T03:12:57.814Z,92.20
2023-06-07T03:15:33.617Z,92.50
2023-06-07T03:18:08.228Z,92.50
2023-06-07T03:20:42.829Z,92.50
2023-06-07T03:23:17.004Z,92.30
2023-06-07T03:25:51.149Z,92.40
2023-06-07T03:28:26.860Z,92.50
2023-06-07T03:31:01.338Z,92.60
2023-06-07T03:33:35.444Z,92.80
2023-06-07T03:36:10.105Z,92.70
2023-06-07T03:38:44.213Z,92.50
2023-06-07T03:41:18.302Z,92.50
2023-06-07T03:43:53.847Z,92.70
2023-06-07T03:46:27.951Z,92.70
2023-06-07T03:49:02.097Z,93.10
2023-06-07T03:51:39.697Z,93.10
2023-06-07T03:54:13.902Z,93.20
2023-06-07T03:56:48.149Z,93.00
2023-06-07T03:59:25.170Z,92.90
2023-06-07T04:01:59.763Z,92.90
2023-06-07T04:04:34.831Z,93.00
2023-06-07T04:07:09.939Z,93.00
2023-06-07T04:09:44.079Z,92.80
2023-06-07T04:12:20.396Z,92.70
2023-06-07T04:14:55.904Z,92.80
2023-06-07T04:17:31.072Z,92.80
2023-06-07T04:20:07.500Z,93.10
2023-06-07T04:22:42.521Z,93.20
2023-06-07T04:25:17.831Z,92.80
2023-06-07T04:27:52.431Z,92.70
2023-06-07T04:30:35.420Z,92.90
2023-06-07T04:33:14.248Z,93.20
2023-06-07T04:35:48.830Z,93.00
2023-06-07T04:38:23.770Z,93.10
2023-06-07T04:40:58.318Z,93.00
2023-06-07T04:43:37.701Z,93.10
2023-06-07T04:46:14.231Z,93.00
2023-06-07T04:48:48.492Z,92.90
2023-06-07T04:51:23.655Z,93.10
2023-06-07T04:53:59.736Z,93.10
2023-06-07T04:56:33.907Z,92.90
2023-06-07T04:59:09.666Z,92.60
2023-06-07T05:01:45.743Z,92.60
2023-06-07T05:04:20.108Z,92.80
2023-06-07T05:06:59.778Z,92.90
2023-06-07T05:09:34.373Z,92.80
2023-06-07T05:12:10.161Z,92.60
2023-06-07T05:14:44.253Z,92.40
2023-06-07T05:17:20.767Z,92.30
2023-06-07T05:19:54.888Z,92.20
2023-06-07T05:22:28.976Z,92.10
2023-06-07T05:25:03.206Z,92.00
2023-06-07T05:27:37.691Z,91.90
2023-06-07T05:30:13.001Z,91.70
2023-06-07T05:32:49.892Z,91.60
2023-06-07T05:35:24.227Z,91.70
2023-06-07T05:37:58.314Z,91.90
2023-06-07T05:40:32.776Z,91.70
2023-06-07T05:43:07.432Z,91.50
2023-06-07T05:45:43.588Z,91.30
2023-06-07T05:48:19.218Z,91.30
2023-06-07T05:50:54.314Z,91.40
2023-06-07T05:53:29.145Z,91.50
2023-06-07T05:56:03.909Z,91.20
2023-06-07T05:58:38.044Z,91.20
2023-06-07T06:01:13.880Z,90.40
2023-06-07T06:03:49.362Z,90.50
2023-06-07T06:06:25.104Z,90.30
2023-06-07T06:08:59.312Z,90.40
2023-06-07T06:11:33.656Z,90.40
2023-06-07T06:14:07.872Z,90.20
2023-06-07T06:16:42.055Z,90.10
2023-06-07T06:19:17.478Z,90.10
2023-06-07T06:21:51.573Z,89.80
2023-06-07T06:24:25.807Z,89.10
2023-06-07T06:26:59.940Z,88.70
2023-06-07T06:29:34.020Z,88.50
2023-06-07T06:32:10.196Z,88.10
2023-06-07T06:34:46.503Z,87.90
2023-06-07T06:37:21.576Z,86.60
2023-06-07T06:39:56.470Z,86.90
2023-06-07T06:42:30.571Z,86.50
2023-06-07T06:45:05.482Z,86.20
2023-06-07T06:47:42.948Z,88.30
2023-06-07T06:50:32.083Z,86.40
2023-06-07T06:53:10.632Z,86.60
2023-06-07T06:55:48.421Z,86.00
2023-06-07T06:58:22.550Z,86.30
2023-06-07T07:00:56.834Z,86.10
2023-06-07T07:03:31.713Z,86.00
2023-06-07T07:06:08.886Z,85.60
2023-06-07T07:08:42.980Z,85.30
2023-06-07T07:11:17.054Z,85.20
2023-06-07T07:13:51.160Z,85.00
2023-06-07T07:16:25.368Z,85.00
2023-06-07T07:19:00.149Z,84.70
2023-06-07T07:21:36.286Z,83.20
2023-06-07T07:24:10.598Z,82.60
2023-06-07T07:26:44.828Z,82.80
2023-06-07T07:29:18.937Z,81.50
2023-06-07T07:31:53.107Z,81.80
2023-06-07T07:34:27.366Z,81.20
2023-06-07T07:37:04.658Z,80.10
2023-06-07T07:39:39.117Z,80.00
2023-06-07T07:42:13.240Z,79.60
2023-06-07T07:44:47.684Z,80.40
2023-06-07T07:47:21.951Z,80.80
2023-06-07T07:49:56.452Z,80.90
2023-06-07T07:52:32.053Z,80.60
2023-06-07T07:55:09.070Z,80.70
2023-06-07T07:57:46.914Z,81.50
2023-06-07T08:00:22.208Z,81.10
2023-06-07T08:02:57.348Z,81.40
2023-06-07T08:05:31.577Z,81.40
2023-06-07T08:08:07.382Z,80.10
2023-06-07T08:10:41.679Z,81.00
2023-06-07T08:13:16.207Z,80.90
2023-06-07T08:15:50.399Z,81.20
2023-06-07T08:18:24.566Z,80.90
2023-06-07T08:20:58.695Z,80.00
2023-06-07T08:23:34.168Z,79.90
2023-06-07T08:26:08.469Z,79.30
2023-06-07T08:28:42.589Z,79.00
2023-06-07T08:31:16.902Z,79.00
2023-06-07T08:33:51.537Z,78.80
2023-06-07T08:36:25.762Z,78.40
2023-06-07T08:39:01.182Z,79.00
2023-06-07T08:41:35.305Z,78.60
2023-06-07T08:44:09.777Z,77.40
2023-06-07T08:46:45.035Z,76.40
2023-06-07T08:49:19.308Z,75.90
2023-06-07T08:52:13.867Z,75.90
2023-06-07T08:54:51.919Z,75.40
2023-06-07T08:57:26.976Z,74.80
2023-06-07T09:00:08.433Z,74.00
2023-06-07T09:02:42.997Z,74.00
2023-06-07T09:05:17.428Z,74.20
2023-06-07T09:07:51.831Z,74.60
2023-06-07T09:10:27.595Z,74.60
2023-06-07T09:13:01.748Z,75.00
2023-06-07T09:15:37.624Z,75.20
2023-06-07T09:18:11.907Z,74.50
2023-06-07T09:20:46.140Z,73.30
2023-06-07T09:23:21.053Z,73.50
2023-06-07T09:25:56.757Z,74.30
2023-06-07T09:28:39.756Z,73.50
2023-06-07T09:31:15.555Z,72.50
2023-06-07T09:33:50.229Z,71.80
2023-06-07T09:36:24.461Z,71.50
2023-06-07T09:38:59.390Z,72.30
2023-06-07T09:41:35.097Z,72.30
2023-06-07T09:44:09.458Z,71.80
2023-06-07T09:46:43.693Z,71.10
2023-06-07T09:49:25.685Z,71.70
2023-06-07T09:52:00.048Z,70.80
2023-06-07T09:54:41.066Z,69.70
2023-06-07T09:57:31.659Z,69.70
2023-06-07T10:00:15.472Z,69.80
2023-06-07T10:02:52.120Z,69.20
2023-06-07T10:05:27.081Z,69.00
2023-06-07T10:08:01.911Z,68.90
2023-06-07T10:10:37.353Z,68.20
2023-06-07T10:13:15.158Z,69.40
2023-06-07T10:15:50.245Z,68.40
2023-06-07T10:18:27.616Z,68.20
2023-06-07T10:21:06.431Z,70.30
2023-06-07T10:23:49.850Z,67.70
2023-06-07T10:26:32.727Z,67.90
2023-06-07T10:29:10.791Z,67.90
2023-06-07T10:31:55.408Z,67.70
2023-06-07T10:34:32.135Z,67.90
2023-06-07T10:37:11.003Z,68.00
2023-06-07T10:39:47.287Z,67.20
2023-06-07T10:42:21.593Z,67.50
2023-06-07T10:44:57.167Z,67.50
2023-06-07T10:47:31.972Z,67.80
2023-06-07T10:50:07.886Z,68.30
2023-06-07T10:52:57.297Z,68.00
2023-06-07T10:55:33.303Z,65.70
2023-06-07T10:58:27.985Z,64.80
2023-06-07T11:01:24.962Z,65.50
2023-06-07T11:03:59.430Z,64.90
2023-06-07T11:06:34.316Z,65.30
2023-06-07T11:09:20.939Z,65.90
2023-06-07T11:11:55.765Z,65.80
2023-06-07T11:14:29.894Z,65.40
2023-06-07T11:17:05.721Z,64.30
2023-06-07T11:19:55.191Z,63.20
2023-06-07T11:22:32.910Z,63.60
2023-06-07T11:25:14.956Z,64.00
2023-06-07T11:27:56.052Z,63.70
2023-06-07T11:30:30.185Z,63.60
2023-06-07T11:33:05.806Z,63.40
2023-06-07T11:35:40.024Z,63.30
2023-06-07T11:38:14.282Z,63.00
2023-06-07T11:40:49.095Z,63.70
2023-06-07T11:43:26.157Z,63.00
2023-06-07T11:46:01.605Z,63.80
2023-06-07T11:48:37.276Z,63.00
2023-06-07T11:51:11.804Z,62.30
2023-06-07T11:53:49.208Z,62.30
2023-06-07T11:56:23.353Z,63.80
2023-06-07T11:58:59.363Z,63.60
2023-06-07T12:01:34.779Z,63.30
2023-06-07T12:04:11.746Z,63.30
2023-06-07T12:06:47.589Z,62.90
2023-06-07T12:09:23.152Z,63.50
2023-06-07T12:11:57.385Z,63.00
2023-06-07T12:14:35.149Z,63.20
2023-06-07T12:17:11.615Z,62.70
2023-06-07T12:19:47.070Z,62.60
2023-06-07T12:22:21.141Z,62.70
2023-06-07T12:24:55.274Z,63.10
2023-06-07T12:27:31.697Z,60.40
2023-06-07T12:30:08.253Z,61.20
2023-06-07T12:32:42.938Z,61.30
2023-06-07T12:35:18.687Z,62.20
2023-06-07T12:37:52.775Z,62.30
2023-06-07T12:40:27.009Z,61.90
2023-06-07T12:43:01.357Z,61.30
2023-06-07T12:45:35.618Z,61.20
2023-06-07T12:48:10.017Z,61.10
2023-06-07T12:50:45.490Z,59.90
2023-06-07T12:53:25.093Z,60.70
2023-06-07T12:55:59.352Z,59.30
2023-06-07T12:58:33.564Z,59.70
2023-06-07T13:01:07.881Z,59.40
2023-06-07T13:03:42.197Z,59.90
2023-06-07T13:06:17.929Z,59.40
2023-06-07T13:09:02.891Z,60.30
2023-06-07T13:11:39.312Z,60.20
2023-06-07T13:14:14.577Z,59.30
2023-06-07T13:16:48.827Z,60.40
2023-06-07T13:19:22.970Z,61.20
2023-06-07T13:21:58.405Z,60.40
2023-06-07T13:24:34.568Z,60.20
2023-06-07T13:27:09.829Z,59.10
2023-06-07T13:29:45.454Z,59.30
2023-06-07T13:32:22.170Z,58.40
2023-06-07T13:34:59.392Z,57.60
2023-06-07T13:37:34.878Z,58.70
2023-06-07T13:40:10.520Z,57.60
2023-06-07T13:42:44.709Z,57.30
2023-06-07T13:45:19.530Z,57.80
2023-06-07T13:47:53.658Z,59.00
2023-06-07T13:50:28.022Z,58.80
2023-06-07T13:53:03.557Z,57.90
2023-06-07T13:55:37.742Z,57.40
2023-06-07T13:58:12.254Z,58.70
2023-06-07T14:00:46.414Z,59.00
2023-06-07T14:03:21.237Z,59.10
2023-06-07T14:05:55.437Z,57.00
2023-06-07T14:08:31.045Z,56.70
2023-06-07T14:11:06.291Z,57.00
2023-06-07T14:13:40.480Z,56.00
2023-06-07T14:16:14.652Z,55.90
2023-06-07T14:18:49.064Z,56.60
2023-06-07T14:21:23.288Z,55.10
2023-06-07T14:23:58.769Z,56.10
2023-06-07T14:26:32.991Z,55.20
2023-06-07T14:29:07.177Z,56.50
2023-06-07T14:31:41.969Z,56.30
2023-06-07T14:34:16.413Z,57.00
2023-06-07T14:36:50.509Z,57.20
2023-06-07T14:39:26.133Z,56.00
2023-06-07T14:42:00.542Z,56.20
2023-06-07T14:44:34.627Z,57.20
2023-06-07T14:47:09.094Z,56.50
2023-06-07T14:49:43.181Z,57.50
2023-06-07T14:52:17.379Z,56.20
2023-06-07T14:54:52.813Z,56.20
2023-06-07T14:57:28.274Z,57.40
2023-06-07T15:00:07.003Z,55.70
2023-06-07T15:02:41.492Z,55.10
2023-06-07T15:05:15.813Z,55.80
2023-06-07T15:07:49.992Z,55.70
2023-06-07T15:10:25.506Z,54.30
2023-06-07T15:13:00.096Z,53.90
2023-06-07T15:15:34.250Z,54.40
2023-06-07T15:18:08.988Z,54.70
2023-06-07T15:20:43.375Z,54.20
2023-06-07T15:23:17.716Z,53.60
2023-06-07T15:25:53.734Z,54.50
2023-06-07T15:28:27.888Z,54.20
2023-06-07T15:31:02.136Z,54.60
2023-06-07T15:33:36.273Z,54.70
2023-06-07T15:36:10.359Z,56.10
2023-06-07T15:38:45.391Z,57.90
2023-06-07T15:41:21.773Z,56.20
2023-06-07T15:43:56.172Z,57.30
2023-06-07T15:46:30.613Z,56.50
2023-06-07T15:49:04.719Z,58.00
2023-06-07T15:51:38.895Z,58.40
2023-06-07T15:54:13.286Z,58.50
2023-06-07T15:56:48.711Z,58.80
2023-06-07T15:59:22.922Z,58.90
2023-06-07T16:01:58.700Z,56.00
2023-06-07T16:04:33.125Z,57.50
2023-06-07T16:07:07.463Z,58.10
2023-06-07T16:09:41.702Z,57.40
2023-06-07T16:12:17.245Z,58.90
2023-06-07T16:14:54.314Z,59.60
2023-06-07T16:17:28.751Z,58.60
2023-06-07T16:20:03.338Z,59.30
2023-06-07T16:22:38.109Z,59.50
2023-06-07T16:25:12.221Z,59.60
2023-06-07T16:27:47.624Z,58.10
2023-06-07T16:30:21.735Z,59.40
2023-06-07T16:32:56.057Z,58.10
2023-06-07T16:35:30.465Z,57.50
2023-06-07T16:38:04.573Z,58.80
2023-06-07T16:40:39.251Z,58.20
2023-06-07T16:43:14.662Z,58.50
2023-06-07T16:45:48.843Z,58.80
2023-06-07T16:48:23.066Z,58.80
2023-06-07T16:50:57.199Z,59.10
2023-06-07T16:53:31.501Z,59.70
2023-06-07T16:56:06.366Z,59.40
2023-06-07T16:58:41.821Z,60.00
2023-06-07T17:01:15.904Z,60.50
2023-06-07T17:03:50.179Z,59.90
2023-06-07T17:06:24.665Z,59.80
2023-06-07T17:08:58.809Z,60.00
2023-06-07T17:11:32.928Z,60.50
2023-06-07T17:14:08.483Z,59.70
2023-06-07T17:16:43.508Z,59.60
2023-06-07T17:19:17.799Z,60.00
2023-06-07T17:21:51.885Z,60.40
2023-06-07T17:24:25.977Z,60.70
2023-06-07T17:27:00.053Z,60.30
2023-06-07T17:29:35.622Z,61.00
2023-06-07T17:32:10.708Z,60.30
2023-06-07T17:34:45.128Z,60.00
2023-06-07T17:37:21.757Z,60.30
2023-06-07T17:39:56.185Z,60.40
2023-06-07T17:42:30.336Z,60.90
2023-06-07T17:45:06.933Z,60.50
2023-06-07T17:47:48.767Z,60.80
2023-06-07T17:50:37.314Z,60.50
2023-06-07T17:53:18.837Z,60.50
2023-06-07T17:55:52.905Z,60.80
2023-06-07T17:58:26.959Z,60.80
2023-06-07T18:01:02.415Z,60.80
2023-06-07T18:03:36.635Z,60.80
2023-06-07T18:06:10.711Z,60.90
2023-06-07T18:08:44.816Z,60.90
2023-06-07T18:11:19.957Z,60.50
2023-06-07T18:13:54.472Z,60.90
2023-06-07T18:16:31.196Z,60.80
2023-06-07T18:19:05.613Z,61.30
2023-06-07T18:21:39.686Z,61.30
2023-06-07T18:24:14.074Z,61.60
2023-06-07T18:26:48.317Z,62.30
2023-06-07T18:29:22.378Z,63.20
2023-06-07T18:31:57.995Z,63.90
2023-06-07T18:34:34.360Z,64.20
2023-06-07T18:37:09.345Z,64.00
2023-06-07T18:39:43.410Z,64.50
2023-06-07T18:42:17.492Z,64.50
2023-06-07T18:44:51.648Z,65.20
2023-06-07T18:47:27.488Z,64.70
2023-06-07T18:50:03.694Z,65.20
2023-06-07T18:52:37.960Z,65.00
2023-06-07T18:55:12.086Z,65.90
2023-06-07T18:57:46.511Z,66.40
2023-06-07T19:00:21.667Z,67.30
2023-06-07T19:02:57.433Z,67.60
2023-06-07T19:05:31.668Z,68.00
2023-06-07T19:08:06.213Z,68.30
2023-06-07T19:10:40.506Z,68.80
2023-06-07T19:13:15.251Z,69.10
2023-06-07T19:15:49.595Z,69.50
2023-06-07T19:18:25.581Z,70.00
2023-06-07T19:20:59.697Z,71.70
2023-06-07T19:23:33.804Z,71.30
2023-06-07T19:26:07.953Z,70.60
2023-06-07T19:28:43.412Z,71.00
2023-06-07T19:31:17.562Z,71.20
2023-06-07T19:33:53.009Z,71.00
2023-06-07T19:36:27.088Z,71.10
2023-06-07T19:39:01.220Z,71.50
2023-06-07T19:41:35.389Z,72.10
2023-06-07T19:44:09.694Z,73.90
2023-06-07T19:46:43.847Z,72.20
2023-06-07T19:49:19.302Z,72.30
2023-06-07T19:51:53.514Z,72.30
2023-06-07T19:54:27.959Z,70.50
2023-06-07T19:57:02.049Z,72.50
2023-06-07T19:59:38.669Z,73.10
2023-06-07T20:02:13.192Z,73.10
2023-06-07T20:04:48.807Z,73.40
2023-06-07T20:07:22.925Z,73.70
2023-06-07T20:10:02.610Z,73.30
2023-06-07T20:12:37.104Z,73.50
2023-06-07T20:15:13.420Z,73.40
2023-06-07T20:17:48.216Z,73.60
2023-06-07T20:20:23.780Z,73.80
2023-06-07T20:22:57.854Z,74.60
2023-06-07T20:25:32.054Z,74.60
2023-06-07T20:28:06.689Z,74.50
2023-06-07T20:30:40.855Z,74.40
2023-06-07T20:33:14.925Z,74.20
2023-06-07T20:35:50.571Z,74.40
2023-06-07T20:38:24.619Z,75.10
2023-06-07T20:40:58.904Z,75.50
2023-06-07T20:43:33.014Z,75.60
2023-06-07T20:46:07.414Z,75.70
2023-06-07T20:48:41.600Z,75.80
2023-06-07T20:51:17.278Z,75.70
2023-06-07T20:53:51.694Z,76.90
2023-06-07T20:56:25.816Z,76.80
2023-06-07T20:58:59.936Z,76.30
2023-06-07T21:01:35.254Z,76.80
2023-06-07T21:04:10.066Z,77.10
2023-06-07T21:06:45.713Z,77.00
2023-06-07T21:09:19.961Z,76.80
2023-06-07T21:11:54.098Z,76.30
2023-06-07T21:14:28.239Z,76.50
2023-06-07T21:17:03.150Z,76.70
2023-06-07T21:19:37.483Z,76.80
2023-06-07T21:22:12.915Z,77.50
2023-06-07T21:24:47.021Z,76.70
2023-06-07T21:27:21.152Z,77.00
2023-06-07T21:29:55.247Z,77.10
2023-06-07T21:32:29.451Z,77.10
2023-06-07T21:35:04.267Z,77.40
2023-06-07T21:37:40.680Z,77.70
2023-06-07T21:40:15.200Z,78.00
2023-06-07T21:42:49.415Z,77.90
2023-06-07T21:45:24.575Z,78.00
2023-06-07T21:47:59.137Z,77.50
2023-06-07T21:50:34.282Z,77.40
2023-06-07T21:53:09.836Z,77.10
2023-06-07T21:55:43.946Z,77.80
2023-06-07T21:58:18.113Z,78.30
2023-06-07T22:00:52.246Z,78.80
2023-06-07T22:03:26.458Z,78.20
2023-06-07T22:06:03.610Z,78.30
2023-06-07T22:08:39.307Z,78.30
2023-06-07T22:11:14.097Z,78.60
2023-06-07T22:13:48.789Z,78.80
2023-06-07T22:16:22.933Z,79.10
2023-06-07T22:18:57.530Z,79.20
2023-06-07T22:21:31.695Z,79.30
2023-06-07T22:24:08.837Z,79.00
2023-06-07T22:26:43.529Z,79.10
2023-06-07T22:29:18.720Z,79.10
2023-06-07T22:31:52.889Z,79.00
2023-06-07T22:34:27.072Z,79.50
2023-06-07T22:37:04.112Z,79.90
2023-06-07T22:39:40.087Z,80.50
2023-06-07T22:42:14.193Z,80.30
2023-06-07T22:44:48.330Z,80.10
2023-06-07T22:47:22.771Z,80.40
2023-06-07T22:50:05.595Z,80.30
2023-06-07T22:52:40.035Z,80.70
2023-06-07T22:55:15.473Z,80.70
2023-06-07T22:57:49.542Z,81.00
2023-06-07T23:00:23.687Z,80.50
2023-06-07T23:02:58.685Z,80.60
2023-06-07T23:05:33.677Z,81.70
2023-06-07T23:08:08.565Z,81.50
2023-06-07T23:10:44.380Z,81.90
2023-06-07T23:13:18.518Z,81.90
2023-06-07T23:15:56.695Z,81.70
2023-06-07T23:18:31.520Z,81.50
2023-06-07T23:21:07.954Z,82.30
2023-06-07T23:23:43.809Z,81.90
2023-06-07T23:26:19.751Z,82.30
2023-06-07T23:28:53.832Z,81.90
2023-06-07T23:31:28.940Z,81.70
2023-06-07T23:34:03.088Z,82.90
2023-06-07T23:36:37.158Z,82.60
2023-06-07T23:39:11.243Z,82.80
2023-06-07T23:41:48.211Z,83.20
2023-06-07T23:44:27.169Z,82.90
2023-06-07T23:47:01.510Z,83.00
2023-06-07T23:49:36.116Z,83.90
2023-06-07T23:52:10.189Z,84.70
2023-06-07T23:54:44.680Z,84.30
2023-06-07T23:57:20.060Z,85.90
2023-06-07T23:59:56.838Z,84.00
